Time;durP1;ratioP1;P1;durP2;ratioP2;P2;SDS_P1;SDS_P2;PMS_P1;PMS_P2;Temp;Humidity;BMP_temperature;BMP_pressure;BME280_temperature;BME280_humidity;BME280_pressure;Samples;Min_cycle;Max_cycle;Signal;HPM_P1;HPM_P2
2023/06/26 00:01:31;;;;;;;7.55;6.85;;;25.30;82.10;;;;;;6181401;28;87630;-64
2023/06/26 00:04:35;;;;;;;7.47;6.85;;;25.20;82.10;;;;;;6217810;28;87901;-65
2023/06/26 00:07:37;;;;;;;7.30;6.60;;;25.20;82.00;;;;;;6213249;28;87849;-66
2023/06/26 00:10:39;;;;;;;7.47;6.78;;;25.20;82.00;;;;;;6203500;28;90195;-66
2023/06/26 00:13:43;;;;;;;7.57;6.95;;;25.20;82.00;;;;;;6200154;28;89004;-64
2023/06/26 00:16:45;;;;;;;7.75;7.03;;;25.20;82.00;;;;;;6204996;28;89081;-65
2023/06/26 00:19:47;;;;;;;7.47;6.85;;;25.20;81.90;;;;;;6203064;28;89403;-65
2023/06/26 00:22:50;;;;;;;7.80;7.10;;;25.20;81.90;;;;;;6194436;28;88117;-65
2023/06/26 00:25:52;;;;;;;7.90;7.20;;;25.20;81.90;;;;;;6204093;28;87910;-65
2023/06/26 00:28:55;;;;;;;7.20;6.60;;;25.20;81.90;;;;;;6191771;28;89231;-65
2023/06/26 00:31:57;;;;;;;8.27;7.47;;;25.20;81.70;;;;;;6203697;28;88322;-65
2023/06/26 00:34:59;;;;;;;7.70;7.10;;;25.20;81.70;;;;;;6218956;28;89170;-66
2023/06/26 00:38:01;;;;;;;7.95;7.22;;;25.20;81.60;;;;;;6213807;28;91458;-65
2023/06/26 00:41:04;;;;;;;7.53;6.93;;;25.20;81.60;;;;;;6192798;28;90050;-65
2023/06/26 00:44:07;;;;;;;8.50;7.55;;;25.20;81.70;;;;;;6204297;28;89640;-65
2023/06/26 00:47:11;;;;;;;7.65;6.95;;;25.20;81.70;;;;;;6199439;28;88366;-65
2023/06/26 00:50:15;;;;;;;7.50;6.80;;;25.20;81.70;;;;;;6206717;28;89163;-66
2023/06/26 00:53:17;;;;;;;8.60;7.80;;;25.20;81.70;;;;;;6194668;28;89058;-66
2023/06/26 00:56:21;;;;;;;8.00;7.30;;;25.10;81.60;;;;;;6204817;28;89102;-65
2023/06/26 00:59:24;;;;;;;8.32;7.53;;;25.10;81.60;;;;;;6217207;28;89081;-66
2023/06/26 01:02:33;;;;;;;7.82;7.13;;;25.10;81.60;;;;;;6205345;28;88700;-65
2023/06/26 01:05:35;;;;;;;8.07;7.38;;;25.10;81.60;;;;;;6217640;28;89642;-66
2023/06/26 01:08:37;;;;;;;8.00;7.30;;;25.10;81.60;;;;;;6200816;28;88979;-65
2023/06/26 01:11:39;;;;;;;7.80;7.10;;;25.10;81.60;;;;;;6197266;28;89922;-66
2023/06/26 01:14:42;;;;;;;8.15;7.38;;;25.10;81.60;;;;;;6208327;28;88607;-65
2023/06/26 01:17:47;;;;;;;7.80;7.10;;;25.10;81.50;;;;;;6200744;28;89079;-65
2023/06/26 01:20:49;;;;;;;8.13;7.32;;;25.10;81.50;;;;;;6188150;28;89316;-65
2023/06/26 01:24:06;;;;;;;8.10;7.30;;;25.10;81.50;;;;;;6203448;28;89231;-65
2023/06/26 01:27:11;;;;;;;8.18;7.47;;;25.10;81.40;;;;;;6193712;28;89179;-66
2023/06/26 01:30:13;;;;;;;8.60;7.68;;;25.10;81.40;;;;;;6206239;28;89085;-65
2023/06/26 01:33:16;;;;;;;8.23;7.43;;;25.00;81.30;;;;;;6208061;28;88280;-66
2023/06/26 01:36:18;;;;;;;8.23;7.53;;;25.00;81.30;;;;;;6209119;28;89135;-65
2023/06/26 01:39:21;;;;;;;8.52;7.72;;;25.10;81.40;;;;;;6195339;28;89354;-65
2023/06/26 01:42:24;;;;;;;7.88;7.20;;;25.00;81.30;;;;;;6197046;28;90180;-65
2023/06/26 01:45:30;;;;;;;8.25;7.55;;;25.00;81.40;;;;;;6200911;28;89067;-65
2023/06/26 01:48:35;;;;;;;8.50;7.68;;;25.00;81.30;;;;;;6205730;28;89148;-66
2023/06/26 01:51:43;;;;;;;7.90;7.20;;;25.00;81.40;;;;;;6202275;28;89075;-65
2023/06/26 01:54:53;;;;;;;8.18;7.38;;;25.00;81.30;;;;;;6205239;28;89395;-65
2023/06/26 01:57:59;;;;;;;8.27;7.57;;;25.00;81.40;;;;;;6194377;28;89106;-67
2023/06/26 02:01:01;;;;;;;8.10;7.40;;;25.00;81.30;;;;;;6203655;28;89048;-66
2023/06/26 02:04:04;;;;;;;8.20;7.47;;;25.00;81.30;;;;;;6210678;28;88346;-66
2023/06/26 02:07:06;;;;;;;7.88;7.18;;;25.00;81.20;;;;;;6212125;28;88094;-66
2023/06/26 02:10:09;;;;;;;9.48;7.32;;;25.00;81.10;;;;;;6215634;28;90305;-66
2023/06/26 02:13:12;;;;;;;7.68;7.00;;;25.00;81.10;;;;;;6208901;28;89935;-66
2023/06/26 02:16:14;;;;;;;8.20;7.50;;;24.90;81.10;;;;;;6208709;28;88932;-66
2023/06/26 02:19:21;;;;;;;7.97;7.28;;;25.00;81.10;;;;;;6209253;28;89039;-66
2023/06/26 02:22:23;;;;;;;7.95;7.13;;;24.90;81.10;;;;;;6220547;28;88864;-66
2023/06/26 02:25:25;;;;;;;8.70;7.88;;;25.00;81.10;;;;;;6198590;28;89538;-66
2023/06/26 02:28:30;;;;;;;9.05;8.15;;;24.90;81.00;;;;;;6219832;28;88994;-66
2023/06/26 02:31:32;;;;;;;8.00;7.30;;;24.90;81.00;;;;;;6197205;28;87902;-66
2023/06/26 02:34:34;;;;;;;8.63;7.82;;;24.90;81.00;;;;;;6205143;28;88416;-66
2023/06/26 02:37:36;;;;;;;8.40;7.60;;;24.90;81.00;;;;;;6207607;28;89524;-66
2023/06/26 02:40:38;;;;;;;7.80;7.10;;;24.90;81.10;;;;;;6196058;28;88971;-66
2023/06/26 02:43:42;;;;;;;8.52;7.72;;;24.90;81.10;;;;;;6207691;28;90291;-67
2023/06/26 02:46:44;;;;;;;7.50;6.90;;;24.90;81.10;;;;;;6224040;28;89109;-66
2023/06/26 02:49:46;;;;;;;7.32;6.72;;;24.90;81.10;;;;;;6205747;28;89121;-66
2023/06/26 02:52:52;;;;;;;7.97;7.28;;;24.90;81.00;;;;;;6206268;28;89321;-66
2023/06/26 02:55:54;;;;;;;7.82;7.13;;;24.90;81.00;;;;;;6196004;28;89027;-66
2023/06/26 02:58:57;;;;;;;8.10;7.30;;;24.90;81.00;;;;;;6209673;28;89068;-66
2023/06/26 03:01:59;;;;;;;8.00;7.20;;;24.90;80.90;;;;;;6214797;28;89020;-66
2023/06/26 03:05:02;;;;;;;8.07;7.38;;;24.90;80.90;;;;;;6200638;28;87196;-66
2023/06/26 03:08:05;;;;;;;7.70;7.03;;;24.90;80.90;;;;;;6209759;28;88018;-66
2023/06/26 03:11:07;;;;;;;7.75;7.13;;;24.90;80.90;;;;;;6210747;28;89069;-66
2023/06/26 03:14:10;;;;;;;7.70;7.00;;;24.80;80.80;;;;;;6193934;28;93801;-66
2023/06/26 03:17:12;;;;;;;7.53;6.82;;;24.80;80.80;;;;;;6211441;28;89011;-66
2023/06/26 03:20:15;;;;;;;8.15;7.47;;;24.80;80.80;;;;;;6195181;28;88998;-66
2023/06/26 03:23:17;;;;;;;8.18;7.38;;;24.80;80.80;;;;;;6193397;28;89152;-66
2023/06/26 03:26:19;;;;;;;8.27;7.50;;;24.80;80.80;;;;;;6199466;28;88110;-66
2023/06/26 03:29:22;;;;;;;8.00;7.30;;;24.80;80.80;;;;;;6198983;28;89499;-66
2023/06/26 03:32:24;;;;;;;8.52;7.60;;;24.80;80.90;;;;;;6198792;28;90415;-66
2023/06/26 03:35:26;;;;;;;8.10;7.40;;;24.80;80.80;;;;;;6191625;28;88358;-66
2023/06/26 03:38:28;;;;;;;7.80;7.13;;;24.80;80.80;;;;;;6193852;28;89049;-66
2023/06/26 03:41:30;;;;;;;7.93;7.13;;;24.80;80.80;;;;;;6188604;28;89206;-66
2023/06/26 03:44:33;;;;;;;8.63;7.72;;;24.80;80.80;;;;;;6205236;28;89870;-65
2023/06/26 03:47:35;;;;;;;8.70;7.90;;;24.80;80.80;;;;;;6188384;28;89171;-65
2023/06/26 03:50:37;;;;;;;8.18;7.38;;;24.80;80.60;;;;;;6203753;28;89110;-66
2023/06/26 03:53:40;;;;;;;8.73;7.93;;;24.80;80.60;;;;;;6192199;28;89097;-66
2023/06/26 03:56:41;;;;;;;8.20;7.50;;;24.70;80.60;;;;;;6197627;28;89040;-66
2023/06/26 03:59:45;;;;;;;8.40;7.63;;;24.80;80.60;;;;;;6199843;28;89413;-66
2023/06/26 04:02:47;;;;;;;10.25;8.00;;;24.70;80.50;;;;;;6189698;28;89093;-66
2023/06/26 04:05:49;;;;;;;9.73;8.82;;;24.70;80.60;;;;;;6204066;28;88422;-66
2023/06/26 04:08:51;;;;;;;14.13;11.60;;;24.70;80.60;;;;;;6189487;28;89368;-66
2023/06/26 04:11:53;;;;;;;14.18;11.20;;;24.70;80.60;;;;;;6201878;28;88176;-65
2023/06/26 04:14:56;;;;;;;15.20;12.00;;;24.70;80.70;;;;;;6183666;28;90027;-66
2023/06/26 04:17:58;;;;;;;13.27;11.85;;;24.70;80.80;;;;;;6196091;28;89097;-66
2023/06/26 04:21:09;;;;;;;11.27;10.18;;;24.70;80.80;;;;;;6204231;28;90795;-66
2023/06/26 04:24:11;;;;;;;13.25;11.82;;;24.70;80.90;;;;;;6200910;28;89073;-66
2023/06/26 04:27:14;;;;;;;12.13;10.88;;;24.70;80.90;;;;;;6211587;28;88394;-66
2023/06/26 04:30:18;;;;;;;13.60;10.90;;;24.70;80.90;;;;;;6192758;28;89024;-66
2023/06/26 04:33:20;;;;;;;10.68;9.57;;;24.70;80.90;;;;;;6197766;28;89388;-66
2023/06/26 04:36:22;;;;;;;10.68;9.50;;;24.70;81.00;;;;;;6201929;28;88859;-66
2023/06/26 04:39:24;;;;;;;9.77;8.70;;;24.70;81.10;;;;;;6203708;28;89003;-66
2023/06/26 04:42:27;;;;;;;10.40;9.30;;;24.70;81.10;;;;;;6202216;28;88812;-66
2023/06/26 04:45:31;;;;;;;9.60;8.70;;;24.70;81.20;;;;;;6200059;28;90051;-66
2023/06/26 04:48:33;;;;;;;9.52;8.63;;;24.70;81.30;;;;;;6214288;28;89083;-66
2023/06/26 04:51:40;;;;;;;10.00;8.95;;;24.70;81.30;;;;;;6192959;28;89053;-66
2023/06/26 04:54:42;;;;;;;8.95;8.05;;;24.70;81.40;;;;;;6207252;28;89247;-66
2023/06/26 04:57:44;;;;;;;9.45;8.38;;;24.70;81.40;;;;;;6194039;28;89212;-66
2023/06/26 05:00:47;;;;;;;9.10;8.20;;;24.70;81.30;;;;;;6188941;28;88784;-66
2023/06/26 05:03:49;;;;;;;9.60;8.70;;;24.70;81.30;;;;;;6192793;28;88955;-66
2023/06/26 05:06:51;;;;;;;8.95;8.05;;;24.60;81.30;;;;;;6183619;28;89327;-66
2023/06/26 05:09:53;;;;;;;8.88;7.97;;;24.70;81.30;;;;;;6188705;28;89268;-65
2023/06/26 05:12:55;;;;;;;9.45;8.45;;;24.70;81.30;;;;;;6203221;28;89109;-66
2023/06/26 05:15:58;;;;;;;9.00;8.10;;;24.70;81.40;;;;;;6213021;28;90063;-66
2023/06/26 05:19:00;;;;;;;8.70;7.80;;;24.70;81.40;;;;;;6211346;28;90003;-66
2023/06/26 05:22:06;;;;;;;8.20;7.50;;;24.70;81.40;;;;;;6199573;28;89109;-66
2023/06/26 05:25:11;;;;;;;9.07;8.25;;;24.70;81.50;;;;;;6190108;28;88908;-66
2023/06/26 05:28:27;;;;;;;8.60;7.78;;;24.70;81.60;;;;;;6193201;28;89140;-66
2023/06/26 05:31:33;;;;;;;8.57;7.68;;;24.70;81.80;;;;;;6196203;28;89205;-65
2023/06/26 05:34:35;;;;;;;9.05;8.20;;;24.60;82.10;;;;;;6209259;28;89574;-66
2023/06/26 05:37:38;;;;;;;8.73;7.88;;;24.70;82.20;;;;;;6195836;28;88404;-66
2023/06/26 05:40:41;;;;;;;8.82;7.47;;;24.70;82.60;;;;;;6221968;28;89098;-66
2023/06/26 05:43:43;;;;;;;9.32;8.13;;;24.70;82.40;;;;;;6210668;28;89152;-66
2023/06/26 05:46:47;;;;;;;9.73;8.60;;;24.70;82.50;;;;;;6220166;28;90031;-66
2023/06/26 05:49:49;;;;;;;8.55;7.70;;;24.70;82.40;;;;;;6200070;28;89331;-66
2023/06/26 05:52:51;;;;;;;9.07;8.18;;;24.70;82.60;;;;;;6187022;28;89049;-67
2023/06/26 05:55:54;;;;;;;8.95;7.35;;;24.80;82.70;;;;;;6215658;28;89056;-66
2023/06/26 05:58:57;;;;;;;8.23;7.43;;;24.70;82.50;;;;;;6220751;28;87876;-67
2023/06/26 06:02:00;;;;;;;9.07;8.18;;;24.80;82.60;;;;;;6203594;28;89132;-66
2023/06/26 06:05:02;;;;;;;8.30;7.45;;;24.70;82.70;;;;;;6203186;28;89373;-66
2023/06/26 06:08:05;;;;;;;8.48;7.43;;;24.80;83.00;;;;;;6209687;28;88321;-66
2023/06/26 06:11:07;;;;;;;8.40;7.70;;;24.70;83.20;;;;;;6206781;28;89153;-66
2023/06/26 06:14:09;;;;;;;8.88;8.00;;;24.80;83.30;;;;;;6221283;28;90722;-66
2023/06/26 06:17:12;;;;;;;8.32;7.45;;;24.80;83.20;;;;;;6210675;28;88815;-66
2023/06/26 06:20:14;;;;;;;8.27;7.47;;;24.80;83.20;;;;;;6209581;28;89212;-66
2023/06/26 06:23:16;;;;;;;8.90;8.10;;;24.80;83.20;;;;;;6201209;28;89258;-66
2023/06/26 06:26:18;;;;;;;8.40;7.60;;;24.80;83.20;;;;;;6221044;28;89091;-66
2023/06/26 06:29:20;;;;;;;8.65;7.75;;;24.80;83.30;;;;;;6200997;28;88991;-66
2023/06/26 06:32:23;;;;;;;9.02;8.13;;;24.80;83.20;;;;;;6187209;28;89256;-66
2023/06/26 06:35:25;;;;;;;8.80;8.00;;;24.80;83.50;;;;;;6197066;28;89062;-66
2023/06/26 06:38:27;;;;;;;8.50;7.70;;;24.80;83.80;;;;;;6197341;28;88421;-66
2023/06/26 06:41:30;;;;;;;9.02;8.23;;;24.80;84.00;;;;;;6204275;28;91773;-67
2023/06/26 06:44:32;;;;;;;8.68;7.88;;;24.80;83.90;;;;;;6207049;28;88955;-67
2023/06/26 06:47:35;;;;;;;8.40;7.65;;;24.80;83.70;;;;;;6188677;28;90151;-67
2023/06/26 06:50:37;;;;;;;8.80;7.95;;;24.80;84.10;;;;;;6206473;28;89083;-66
2023/06/26 06:53:39;;;;;;;8.18;7.47;;;24.80;84.20;;;;;;6200332;28;89091;-66
2023/06/26 06:56:41;;;;;;;8.13;7.43;;;24.90;84.20;;;;;;6193194;28;89059;-66
2023/06/26 06:59:43;;;;;;;8.52;7.68;;;24.80;83.80;;;;;;6198689;28;89248;-67
2023/06/26 07:02:47;;;;;;;8.10;7.30;;;24.90;83.90;;;;;;6197809;28;89115;-67
2023/06/26 07:05:49;;;;;;;9.10;8.27;;;24.90;84.10;;;;;;6184078;28;89061;-67
2023/06/26 07:08:51;;;;;;;9.20;8.30;;;24.90;86.60;;;;;;6186641;28;88290;-67
2023/06/26 07:11:53;;;;;;;8.98;8.15;;;24.90;85.70;;;;;;6210854;28;89066;-66
2023/06/26 07:14:56;;;;;;;9.13;8.32;;;24.90;84.40;;;;;;6219082;28;89066;-66
2023/06/26 07:18:00;;;;;;;9.27;8.38;;;24.90;84.00;;;;;;6213793;28;90026;-65
2023/06/26 07:21:01;;;;;;;9.23;8.32;;;24.90;84.50;;;;;;6214192;28;89050;-68
2023/06/26 07:24:04;;;;;;;9.32;8.35;;;24.90;88.30;;;;;;6196142;28;89102;-67
2023/06/26 07:27:06;;;;;;;8.85;8.05;;;24.90;86.30;;;;;;6220864;28;89087;-68
2023/06/26 07:30:09;;;;;;;9.18;8.07;;;24.90;85.50;;;;;;6213474;28;89225;-67
2023/06/26 07:33:13;;;;;;;8.70;7.88;;;24.90;85.30;;;;;;6191090;28;88997;-68
2023/06/26 07:36:15;;;;;;;8.63;7.82;;;24.90;85.00;;;;;;6206092;28;89395;-68
2023/06/26 07:39:17;;;;;;;8.77;7.97;;;24.90;84.90;;;;;;6218167;28;88415;-68
2023/06/26 07:42:19;;;;;;;8.90;8.00;;;24.90;84.80;;;;;;6199744;28;89279;-68
2023/06/26 07:45:21;;;;;;;8.73;7.82;;;24.90;84.70;;;;;;6211004;28;89119;-68
2023/06/26 07:48:24;;;;;;;8.27;7.47;;;24.90;84.60;;;;;;6205648;28;90124;-67
2023/06/26 07:51:26;;;;;;;8.73;7.82;;;24.90;84.50;;;;;;6207758;28;89059;-68
2023/06/26 07:54:29;;;;;;;8.48;7.68;;;24.90;84.40;;;;;;6213304;28;88915;-67
2023/06/26 07:57:32;;;;;;;8.60;7.80;;;24.90;84.30;;;;;;6183357;28;89131;-68
2023/06/26 08:00:34;;;;;;;8.25;7.38;;;24.90;84.20;;;;;;6212263;28;88949;-68
2023/06/26 08:03:37;;;;;;;7.85;7.15;;;24.90;84.10;;;;;;6199628;28;89425;-68
2023/06/26 08:06:40;;;;;;;8.10;7.30;;;24.90;84.10;;;;;;6193277;28;89116;-68
2023/06/26 08:09:42;;;;;;;8.20;7.50;;;24.90;84.20;;;;;;6216638;28;88248;-68
2023/06/26 08:12:44;;;;;;;8.05;7.35;;;24.90;84.20;;;;;;6206807;28;89129;-68
2023/06/26 08:15:47;;;;;;;8.00;7.20;;;24.90;84.20;;;;;;6205871;28;89123;-68
2023/06/26 08:18:50;;;;;;;8.68;7.88;;;24.90;84.20;;;;;;6209548;28;90327;-67
2023/06/26 08:21:52;;;;;;;8.10;7.40;;;24.90;84.20;;;;;;6209571;28;88029;-68
2023/06/26 08:24:54;;;;;;;8.40;7.40;;;24.90;84.20;;;;;;6210267;28;88505;-67
2023/06/26 08:27:56;;;;;;;7.90;7.15;;;24.90;84.30;;;;;;6196482;28;89059;-67
2023/06/26 08:30:59;;;;;;;8.90;8.00;;;24.90;84.40;;;;;;6207878;28;89113;-67
2023/06/26 08:34:02;;;;;;;7.85;7.15;;;24.90;84.30;;;;;;6192839;28;87973;-67
2023/06/26 08:37:05;;;;;;;7.78;7.07;;;24.90;84.30;;;;;;6194035;28;88700;-67
2023/06/26 08:40:08;;;;;;;7.47;6.78;;;24.90;84.20;;;;;;6209386;28;88302;-68
2023/06/26 08:43:10;;;;;;;8.10;7.40;;;25.00;84.30;;;;;;6192310;28;89061;-66
2023/06/26 08:46:12;;;;;;;7.72;6.97;;;24.90;85.10;;;;;;6199400;28;88871;-67
2023/06/26 08:49:21;;;;;;;7.60;6.90;;;24.90;84.30;;;;;;6191946;28;89655;-67
2023/06/26 08:52:24;;;;;;;7.97;7.28;;;24.90;84.20;;;;;;6196130;28;87908;-67
2023/06/26 08:55:29;;;;;;;7.93;7.22;;;24.90;84.30;;;;;;6199717;28;88044;-67
2023/06/26 08:58:31;;;;;;;7.70;6.95;;;25.00;84.50;;;;;;6195510;28;89203;-67
2023/06/26 09:01:33;;;;;;;7.82;7.10;;;24.90;84.50;;;;;;6198403;28;88783;-67
2023/06/26 09:04:37;;;;;;;7.90;7.20;;;24.90;85.50;;;;;;6202566;28;89206;-68
2023/06/26 09:07:39;;;;;;;7.78;7.00;;;24.90;84.80;;;;;;6204146;28;89557;-68
2023/06/26 09:10:41;;;;;;;8.00;7.20;;;24.90;84.80;;;;;;6205853;28;88647;-68
2023/06/26 09:13:47;;;;;;;7.90;7.20;;;24.90;85.70;;;;;;6191782;28;87960;-68
2023/06/26 09:16:49;;;;;;;7.93;7.22;;;24.90;85.00;;;;;;6209378;28;89157;-67
2023/06/26 09:19:52;;;;;;;7.63;6.97;;;24.90;84.90;;;;;;6192420;28;91778;-68
2023/06/26 09:22:55;;;;;;;7.32;6.72;;;24.90;84.90;;;;;;6198226;28;88270;-68
2023/06/26 09:25:57;;;;;;;7.93;7.22;;;24.90;85.00;;;;;;6210997;28;89334;-68
2023/06/26 09:29:00;;;;;;;7.88;7.18;;;24.90;85.80;;;;;;6195302;28;89111;-67
2023/06/26 09:32:02;;;;;;;7.80;7.10;;;24.90;85.00;;;;;;6190264;28;89371;-68
2023/06/26 09:35:06;;;;;;;7.82;7.13;;;25.00;85.10;;;;;;6193035;28;89057;-68
2023/06/26 09:38:08;;;;;;;8.00;7.20;;;25.00;85.20;;;;;;6213875;28;88872;-68
2023/06/26 09:41:10;;;;;;;7.82;7.13;;;25.00;85.20;;;;;;6219343;28;88348;-68
2023/06/26 09:44:14;;;;;;;8.30;7.50;;;25.00;85.10;;;;;;6203316;28;89081;-67
2023/06/26 09:47:18;;;;;;;7.78;7.00;;;25.00;85.20;;;;;;6205967;28;89173;-68
2023/06/26 09:50:27;;;;;;;8.30;7.20;;;25.00;85.20;;;;;;6209069;28;90026;-68
2023/06/26 09:53:29;;;;;;;7.72;6.93;;;25.00;86.90;;;;;;6197982;28;88102;-68
2023/06/26 09:56:32;;;;;;;8.52;7.22;;;25.00;86.60;;;;;;6189055;28;89269;-68
2023/06/26 09:59:34;;;;;;;10.13;7.75;;;25.00;86.30;;;;;;6181277;28;89268;-68
2023/06/26 10:02:36;;;;;;;9.60;7.28;;;25.00;87.10;;;;;;6198199;28;89100;-68
2023/06/26 10:05:41;;;;;;;8.60;7.10;;;25.00;86.90;;;;;;6193777;28;88511;-68
2023/06/26 10:08:44;;;;;;;7.82;7.00;;;25.00;86.60;;;;;;6184227;28;89022;-68
2023/06/26 10:11:50;;;;;;;9.13;6.78;;;25.00;86.60;;;;;;6208999;28;87162;-68
2023/06/26 10:14:53;;;;;;;7.97;7.18;;;25.00;87.50;;;;;;6197192;28;89382;-67
2023/06/26 10:17:57;;;;;;;9.93;7.13;;;25.00;86.60;;;;;;6203439;28;89428;-68
2023/06/26 10:21:03;;;;;;;8.25;6.50;;;25.10;86.70;;;;;;6200146;28;89944;-70
2023/06/26 10:24:07;;;;;;;7.53;6.82;;;25.00;87.60;;;;;;6194042;28;88909;-68
2023/06/26 10:27:15;;;;;;;8.77;7.20;;;25.00;88.40;;;;;;6221993;28;89652;-69
2023/06/26 10:30:23;;;;;;;8.10;7.03;;;25.00;88.80;;;;;;6194754;28;89414;-69
2023/06/26 10:33:26;;;;;;;8.57;6.97;;;25.00;88.60;;;;;;6195576;28;89066;-69
2023/06/26 10:36:33;;;;;;;8.05;7.30;;;25.00;88.50;;;;;;6204015;28;89026;-68
2023/06/26 10:39:49;;;;;;;8.45;7.13;;;25.10;89.10;;;;;;6209732;28;89573;-68
2023/06/26 10:42:51;;;;;;;8.88;7.97;;;25.00;89.10;;;;;;6214671;28;87242;-69
2023/06/26 10:45:55;;;;;;;9.88;7.28;;;25.10;89.10;;;;;;6213340;28;89371;-69
2023/06/26 10:48:59;;;;;;;8.73;7.47;;;25.10;89.70;;;;;;6206972;28;89145;-68
2023/06/26 10:52:03;;;;;;;8.50;7.55;;;25.10;90.00;;;;;;6210630;28;90216;-69
2023/06/26 10:55:08;;;;;;;8.32;7.53;;;25.20;90.20;;;;;;6217027;28;89037;-71
2023/06/26 10:58:29;;;;;;;8.35;7.53;;;25.20;90.00;;;;;;6197916;28;89117;-70
2023/06/26 11:01:41;;;;;;;8.45;7.65;;;25.20;89.70;;;;;;6199292;28;89375;-71
2023/06/26 11:04:46;;;;;;;9.32;7.70;;;25.20;89.90;;;;;;6206380;28;89058;-71
2023/06/26 11:08:10;;;;;;;8.43;7.32;;;25.20;89.50;;;;;;6212969;28;89101;-71
2023/06/26 11:11:12;;;;;;;8.40;7.57;;;25.20;89.70;;;;;;6208741;28;87896;-71
2023/06/26 11:14:16;;;;;;;8.20;7.20;;;25.20;89.80;;;;;;6198444;28;88389;-71
2023/06/26 11:17:20;;;;;;;9.00;7.38;;;25.20;89.60;;;;;;6208103;28;89037;-71
2023/06/26 11:20:22;;;;;;;8.15;7.05;;;25.20;89.40;;;;;;6196201;28;89179;-71
2023/06/26 11:23:26;;;;;;;7.80;7.05;;;25.10;89.20;;;;;;6201045;28;90217;-70
2023/06/26 11:26:28;;;;;;;8.00;7.20;;;25.10;89.10;;;;;;6198756;28;89511;-71
2023/06/26 11:29:31;;;;;;;7.95;7.15;;;25.20;89.10;;;;;;6215335;28;89097;-70
2023/06/26 11:32:33;;;;;;;7.95;7.15;;;25.10;88.90;;;;;;6190310;28;89004;-70
2023/06/26 11:35:37;;;;;;;8.27;6.72;;;25.10;88.80;;;;;;6193705;28;88940;-71
2023/06/26 11:38:40;;;;;;;7.78;7.00;;;25.10;88.90;;;;;;6195651;28;89053;-71
2023/06/26 11:41:42;;;;;;;7.70;7.00;;;25.10;88.70;;;;;;6189906;28;89409;-70
2023/06/26 11:44:44;;;;;;;7.32;6.72;;;25.10;88.60;;;;;;6200020;28;88681;-71
2023/06/26 11:47:46;;;;;;;7.65;6.85;;;25.10;89.10;;;;;;6190814;28;89112;-71
2023/06/26 11:50:52;;;;;;;7.80;6.90;;;25.10;89.40;;;;;;6202355;28;89084;-71
2023/06/26 11:53:55;;;;;;;7.78;7.07;;;25.10;90.20;;;;;;6208705;28;90211;-71
2023/06/26 11:56:59;;;;;;;7.80;7.10;;;25.10;89.40;;;;;;6202655;28;89270;-72
2023/06/26 12:00:12;;;;;;;7.80;7.10;;;25.10;89.60;;;;;;6211287;28;87976;-71
2023/06/26 12:03:14;;;;;;;7.60;6.90;;;25.20;89.80;;;;;;6195041;28;89123;-71
2023/06/26 12:06:16;;;;;;;7.50;6.80;;;25.10;89.60;;;;;;6184820;28;89458;-71
2023/06/26 12:09:21;;;;;;;7.30;6.60;;;25.20;89.60;;;;;;6199273;28;88008;-71
2023/06/26 12:12:23;;;;;;;8.05;7.22;;;25.20;89.70;;;;;;6196494;28;88134;-71
2023/06/26 12:15:25;;;;;;;7.65;6.95;;;25.20;89.50;;;;;;6206322;28;87829;-70
2023/06/26 12:18:35;;;;;;;8.00;7.28;;;25.20;89.50;;;;;;6202695;28;89390;-69
2023/06/26 12:21:52;;;;;;;7.50;6.80;;;25.20;89.30;;;;;;6197380;28;88613;-70
2023/06/26 12:24:58;;;;;;;7.32;6.63;;;25.20;89.00;;;;;;6194435;28;90043;-69
2023/06/26 12:28:00;;;;;;;8.23;7.43;;;25.20;89.00;;;;;;6213914;28;89147;-70
2023/06/26 12:31:16;;;;;;;7.10;6.40;;;25.20;88.90;;;;;;6193590;28;89192;-70
2023/06/26 12:34:20;;;;;;;7.07;6.43;;;25.20;88.70;;;;;;6200155;28;88951;-70
2023/06/26 12:37:22;;;;;;;7.80;7.07;;;25.20;88.60;;;;;;6207291;28;89125;-70
2023/06/26 12:40:26;;;;;;;7.40;6.70;;;25.20;89.00;;;;;;6206418;28;89016;-70
2023/06/26 12:43:28;;;;;;;7.22;6.53;;;25.20;89.00;;;;;;6218659;28;89225;-70
2023/06/26 12:46:36;;;;;;;8.35;7.40;;;25.20;89.40;;;;;;6200995;28;88426;-70
2023/06/26 12:49:39;;;;;;;7.57;6.85;;;25.20;89.30;;;;;;6204899;28;89073;-70
2023/06/26 12:52:41;;;;;;;7.32;6.72;;;25.20;89.10;;;;;;6216101;28;89271;-70
2023/06/26 12:55:44;;;;;;;7.43;6.72;;;25.20;89.10;;;;;;6195683;28;90509;-70
2023/06/26 12:58:46;;;;;;;7.20;6.50;;;25.20;88.90;;;;;;6192599;28;87978;-70
2023/06/26 13:01:48;;;;;;;7.68;6.93;;;25.20;88.80;;;;;;6208756;28;89042;-69
2023/06/26 13:04:50;;;;;;;7.07;6.47;;;25.20;88.70;;;;;;6208525;28;88781;-70
2023/06/26 13:07:53;;;;;;;7.30;6.70;;;25.20;88.70;;;;;;6191611;28;89112;-70
2023/06/26 13:10:56;;;;;;;7.20;6.50;;;25.20;88.70;;;;;;6182838;28;89934;-71
2023/06/26 13:13:59;;;;;;;7.72;7.03;;;25.20;88.50;;;;;;6188778;28;89370;-69
2023/06/26 13:17:01;;;;;;;7.30;6.70;;;25.20;88.70;;;;;;6204246;28;88661;-70
2023/06/26 13:20:05;;;;;;;7.63;6.93;;;25.20;88.20;;;;;;6189951;28;87176;-70
2023/06/26 13:23:08;;;;;;;7.38;6.68;;;25.20;87.80;;;;;;6190181;28;89014;-69
2023/06/26 13:26:12;;;;;;;7.20;6.60;;;25.20;87.50;;;;;;6190704;28;89922;-70
2023/06/26 13:29:15;;;;;;;7.03;6.43;;;25.20;87.50;;;;;;6192577;28;87963;-69
2023/06/26 13:32:17;;;;;;;7.40;6.50;;;25.20;87.50;;;;;;6197405;28;89435;-70
2023/06/26 13:35:19;;;;;;;7.07;6.38;;;25.20;87.60;;;;;;6200074;28;89193;-71
2023/06/26 13:38:24;;;;;;;6.80;6.20;;;25.20;87.60;;;;;;6204395;28;89493;-71
2023/06/26 13:41:28;;;;;;;7.05;6.43;;;25.30;87.60;;;;;;6195341;28;89419;-70
2023/06/26 13:44:30;;;;;;;7.60;6.85;;;25.20;87.50;;;;;;6204876;28;89850;-71
2023/06/26 13:47:34;;;;;;;8.18;6.70;;;25.20;87.50;;;;;;6204504;28;88253;-71
2023/06/26 13:50:36;;;;;;;6.88;6.18;;;25.20;87.40;;;;;;6206933;28;89373;-71
2023/06/26 13:53:38;;;;;;;6.85;6.25;;;25.20;87.40;;;;;;6205626;28;89140;-68
2023/06/26 13:56:41;;;;;;;7.47;6.78;;;25.20;88.50;;;;;;6185446;28;90164;-68
2023/06/26 13:59:43;;;;;;;7.43;6.70;;;25.30;90.40;;;;;;6185314;28;89097;-69
2023/06/26 14:02:45;;;;;;;9.40;7.32;;;25.30;94.30;;;;;;6180863;28;89006;-71
2023/06/26 14:05:47;;;;;;;12.40;7.40;;;25.30;93.50;;;;;;6195242;28;87104;-71
2023/06/26 14:08:49;;;;;;;79.28;56.28;;;25.30;92.60;;;;;;6182575;28;89070;-73
2023/06/26 14:11:53;;;;;;;32.75;26.88;;;25.40;93.10;;;;;;6191601;28;89123;-73
2023/06/26 14:14:54;;;;;;;23.23;19.77;;;25.50;95.10;;;;;;6187687;28;89108;-71
2023/06/26 14:17:57;;;;;;;19.15;15.63;;;25.50;94.00;;;;;;6203679;28;87280;-71
2023/06/26 14:20:58;;;;;;;17.38;14.70;;;25.60;92.40;;;;;;6197305;28;89120;-72
2023/06/26 14:24:02;;;;;;;15.65;13.60;;;25.60;91.90;;;;;;6195489;28;89118;-71
2023/06/26 14:27:06;;;;;;;15.23;13.38;;;25.60;91.50;;;;;;6206770;28;89546;-72
2023/06/26 14:30:09;;;;;;;14.02;12.50;;;25.60;91.30;;;;;;6191597;28;88018;-71
2023/06/26 14:33:11;;;;;;;13.45;12.05;;;25.60;91.20;;;;;;6195703;28;89110;-72
2023/06/26 14:36:13;;;;;;;13.73;12.32;;;25.60;91.10;;;;;;6200403;28;89036;-72
2023/06/26 14:39:15;;;;;;;13.32;11.27;;;25.50;90.90;;;;;;6199640;28;89336;-73
2023/06/26 14:42:18;;;;;;;11.88;10.63;;;25.60;90.90;;;;;;6207028;28;89017;-72
2023/06/26 14:45:21;;;;;;;12.82;11.15;;;25.50;90.90;;;;;;6205664;28;89498;-72
2023/06/26 14:48:23;;;;;;;12.90;11.07;;;25.50;90.80;;;;;;6198321;28;88322;-72
2023/06/26 14:51:25;;;;;;;13.65;11.52;;;25.50;90.80;;;;;;6205964;28;89264;-72
2023/06/26 14:54:27;;;;;;;11.77;10.57;;;25.50;90.80;;;;;;6207476;28;90237;-71
2023/06/26 14:57:31;;;;;;;11.10;9.98;;;25.50;90.80;;;;;;6192339;28;89984;-72
2023/06/26 15:00:33;;;;;;;11.38;10.27;;;25.50;90.70;;;;;;6205074;28;89048;-71
2023/06/26 15:03:35;;;;;;;11.68;10.38;;;25.50;90.70;;;;;;6199543;28;89102;-70
2023/06/26 15:06:37;;;;;;;11.38;10.27;;;25.50;90.70;;;;;;6199741;28;89339;-70
2023/06/26 15:09:39;;;;;;;11.68;10.05;;;25.50;90.70;;;;;;6189151;28;89486;-70
2023/06/26 15:12:43;;;;;;;11.15;9.95;;;25.50;91.10;;;;;;6198431;28;89085;-71
2023/06/26 15:15:45;;;;;;;10.73;9.65;;;25.50;90.70;;;;;;6210609;28;89122;-70
2023/06/26 15:18:47;;;;;;;10.48;9.40;;;25.50;90.70;;;;;;6204855;28;88419;-71
2023/06/26 15:21:49;;;;;;;10.40;9.40;;;25.50;90.60;;;;;;6208489;28;88110;-72
2023/06/26 15:24:51;;;;;;;10.98;9.73;;;25.50;90.70;;;;;;6203793;28;89141;-71
2023/06/26 15:27:54;;;;;;;10.95;9.85;;;25.50;90.70;;;;;;6210558;28;90056;-71
2023/06/26 15:30:56;;;;;;;10.38;9.38;;;25.50;90.70;;;;;;6213201;28;89096;-70
2023/06/26 15:33:58;;;;;;;10.13;9.02;;;25.50;90.50;;;;;;6220700;28;88123;-70
2023/06/26 15:37:00;;;;;;;10.27;9.27;;;25.50;90.30;;;;;;6214590;28;88441;-71
2023/06/26 15:40:02;;;;;;;10.32;9.32;;;25.50;90.20;;;;;;6197641;28;89266;-71
2023/06/26 15:43:05;;;;;;;9.70;8.80;;;25.50;90.20;;;;;;6202476;28;89192;-70
2023/06/26 15:46:07;;;;;;;9.95;8.95;;;25.50;90.10;;;;;;6195139;28;89113;-71
2023/06/26 15:49:09;;;;;;;9.10;8.20;;;25.50;90.10;;;;;;6199326;28;88373;-71
2023/06/26 15:52:11;;;;;;;9.93;8.68;;;25.50;90.10;;;;;;6190763;28;88188;-71